Hlavní strana
METAR-TAF:

METAR-TAF

Letiště :

Victoria, Mahé, Seychely

zeměpisná šířka: 04-40S, zeměpisná délka: 055-31E, výška: 3 m

Aktuální stav počasí

Zpráva byla vytvořena před 35 minutami, v 09:00 UTC
Severozápadní vítr 15 kt
Teplota 30°C
Vlhkost vzduchu 66%
Tlak 1008 hPa
Viditelnost 10 km a více
Polojasno ve výšce 3400 ft

METAR: FSIA 240900Z 32015KT 9999 SCT034 30/23 Q1008 NOSIG

Čas: 13:35 (09:35 UTC)

Předpověď počasí

Zpráva byla vytvořena před 4 hodinami a 34 minutami, v 05:01 UTC
Předpověď platná od 24 v 06 UTC do 25 v 06 UTC
Severoseverozápadní vítr 10 kt
Viditelnost 10 km a více
Polojasno ve výšce 2600 ft
Dočasný
od 24 v 10 UTC do 24 v 18 UTC
Oblačno až skoro zataženo ve výšce 2200 ft
slabé dešťové přeháňky
Pravděpodobnost 40% :
Dočasný
od 24 v 20 UTC do 25 v 02 UTC
Oblačno až skoro zataženo ve výšce 2000 ft
slabé dešťové přeháňky

TAF: FSIA 240501Z 2406/2506 34010KT 9999 SCT026 TEMPO 2410/2418 -SHRA BKN022 PROB40 TEMPO 2420/2502 -SHRA BKN020

Stav a předpovědi počasí z více než 4 000 letišť (zprávy METAR a TAF).

Červené a žluté tečky na mapě představují dostupné meteorologické stanice.

Když kurzor umístíte na tečku, zobrazí se název stanice.

Pak kliknutím zobrazíte stav a předpověď počasí.

Chcete-li změnit mapu, kliknutím na zelené tlačítko se znaménkem +mapu přiblížíte, kliknutím na zelené tlačítko se znaménkem – mapu oddálíte a kliknutím na zelené šipky přejdete na sousední mapy.


METAR-TAF: